Time;durP1;ratioP1;P1;durP2;ratioP2;P2;SDS_P1;SDS_P2;PMS_P1;PMS_P2;Temp;Humidity;BMP_temperature;BMP_pressure;BME280_temperature;BME280_humidity;BME280_pressure;Samples;Min_cycle;Max_cycle;Signal;HPM_P1;HPM_P2
2021/06/11 18:38:56;;;;;;;6.38;1.45;;;26.60;99.60;;;;;;5121436;27;20353;-58
2021/06/11 18:41:26;;;;;;;4.22;1.20;;;26.20;99.70;;;;;;5088581;27;20021;-57
2021/06/11 18:57:26;;;;;;;4.03;1.65;;;26.10;99.90;;;;;;5140589;27;20373;-54
2021/06/11 19:00:08;;;;;;;5.95;2.55;;;26.10;99.90;;;;;;5126669;27;20036;-54
2021/06/11 19:02:34;;;;;;;4.50;1.88;;;26.00;99.90;;;;;;5123148;28;20088;-56
2021/06/11 19:05:02;;;;;;;3.38;1.58;;;26.00;99.90;;;;;;5128497;27;20033;-53
2021/06/11 19:31:50;;;;;;;6.30;2.63;;;24.90;99.90;;;;;;5147469;27;20130;-57
2021/06/11 19:34:15;;;;;;;4.47;1.90;;;23.80;99.90;;;;;;5125984;27;20031;-58
2021/06/11 19:36:59;;;;;;;10.63;5.57;;;23.50;99.90;;;;;;5139907;22;20047;-53
2021/06/11 19:39:43;;;;;;;31.88;16.40;;;23.40;99.90;;;;;;5123007;28;20039;-54
2021/06/11 19:42:27;;;;;;;3.83;1.65;;;23.20;99.90;;;;;;5124046;28;20019;-55
2021/06/11 19:45:13;;;;;;;3.67;1.63;;;23.10;99.90;;;;;;5124079;27;20428;-57
2021/06/11 19:47:49;;;;;;;3.83;2.17;;;22.90;99.90;;;;;;5110172;27;20055;-56
2021/06/11 19:50:19;;;;;;;4.18;2.13;;;22.80;99.90;;;;;;5103413;28;20360;-58
2021/06/11 19:52:59;;;;;;;6.30;1.58;;;22.70;99.90;;;;;;5098414;28;20107;-52
2021/06/11 19:55:32;;;;;;;9.57;3.80;;;22.50;99.90;;;;;;5099591;28;20027;-53
2021/06/11 19:57:58;;;;;;;4.40;2.40;;;22.40;99.90;;;;;;5101661;28;20032;-54
2021/06/11 20:00:24;;;;;;;7.35;2.85;;;22.40;99.90;;;;;;5104590;28;20028;-53
2021/06/11 20:02:51;;;;;;;13.85;2.15;;;22.30;99.90;;;;;;5103788;27;20102;-55
2021/06/11 20:05:16;;;;;;;11.88;8.68;;;22.20;99.90;;;;;;5103545;28;20036;-55
2021/06/11 20:07:42;;;;;;;5.40;3.50;;;22.10;99.90;;;;;;5103115;28;20324;-53
2021/06/11 20:10:09;;;;;;;2.97;1.65;;;22.00;99.90;;;;;;5103053;28;20055;-55
2021/06/11 20:12:35;;;;;;;3.92;1.80;;;22.00;99.90;;;;;;5102680;28;20097;-51
2021/06/11 20:15:03;;;;;;;5.40;1.40;;;21.90;99.90;;;;;;5104598;28;20024;-57
2021/06/11 20:17:28;;;;;;;2.25;1.80;;;21.80;99.90;;;;;;5097035;28;20036;-54
2021/06/11 20:19:54;;;;;;;11.40;2.05;;;21.60;99.90;;;;;;5103416;28;20031;-59
2021/06/11 20:22:21;;;;;;;4.75;1.80;;;21.60;99.90;;;;;;5101918;28;20157;-57
2021/06/11 20:24:48;;;;;;;4.55;2.17;;;21.50;99.90;;;;;;5103079;28;20020;-57
2021/06/11 20:27:15;;;;;;;68.38;37.08;;;21.50;99.90;;;;;;5102963;28;20391;-52
2021/06/11 20:29:42;;;;;;;10.38;3.90;;;21.50;99.90;;;;;;5104818;28;20467;-55
2021/06/11 20:32:08;;;;;;;7.78;2.33;;;21.50;99.90;;;;;;5088284;28;20123;-59
2021/06/11 20:34:34;;;;;;;18.65;12.00;;;21.40;99.90;;;;;;5088403;28;20101;-56
2021/06/11 20:37:00;;;;;;;4.28;2.28;;;21.40;99.90;;;;;;5090365;28;20036;-55
2021/06/11 20:39:25;;;;;;;12.88;4.18;;;21.40;99.90;;;;;;5088398;28;20079;-57
2021/06/11 20:41:51;;;;;;;10.60;3.20;;;21.30;99.90;;;;;;5087889;28;20020;-60
2021/06/11 20:44:18;;;;;;;12.68;3.33;;;21.20;99.90;;;;;;5089067;28;20031;-56
2021/06/11 20:46:44;;;;;;;6.90;2.15;;;21.20;99.90;;;;;;5089164;28;20509;-60
2021/06/11 20:49:10;;;;;;;11.98;2.50;;;21.10;99.90;;;;;;5087247;28;20110;-58
2021/06/11 20:51:35;;;;;;;5.60;2.67;;;21.00;99.90;;;;;;5090148;28;20460;-55
2021/06/11 20:54:02;;;;;;;6.82;2.17;;;20.90;99.90;;;;;;5090863;28;20028;-52
2021/06/11 20:56:28;;;;;;;8.05;2.08;;;20.80;99.90;;;;;;5094726;28;20046;-58
2021/06/11 20:58:55;;;;;;;3.95;2.30;;;20.70;99.90;;;;;;5089569;28;20020;-57
2021/06/11 21:01:21;;;;;;;3.03;1.70;;;20.70;99.90;;;;;;5090576;28;20031;-58
2021/06/11 21:03:46;;;;;;;4.80;2.20;;;20.60;99.90;;;;;;5091023;28;20505;-57
2021/06/11 21:06:13;;;;;;;3.60;2.72;;;20.60;99.90;;;;;;5095120;28;20088;-53
2021/06/11 21:08:41;;;;;;;8.48;4.50;;;20.50;99.90;;;;;;5088403;28;20020;-58
2021/06/11 21:11:06;;;;;;;6.95;3.75;;;20.60;99.90;;;;;;5089078;28;20423;-57
2021/06/11 21:13:32;;;;;;;6.25;3.67;;;20.50;99.90;;;;;;5090057;28;20035;-54
2021/06/11 21:15:58;;;;;;;7.03;3.70;;;20.50;99.90;;;;;;5089618;28;20024;-56
2021/06/11 21:18:23;;;;;;;3.80;2.83;;;20.50;99.90;;;;;;5089862;28;20038;-57
2021/06/11 21:20:49;;;;;;;4.50;3.10;;;20.50;99.90;;;;;;5089059;28;20028;-59
2021/06/11 21:23:19;;;;;;;7.20;2.58;;;20.50;99.90;;;;;;5087367;28;20028;-56
2021/06/11 21:25:44;;;;;;;4.50;2.22;;;20.50;99.90;;;;;;5089872;28;20028;-56
2021/06/11 21:28:10;;;;;;;5.03;2.53;;;20.60;99.90;;;;;;5091183;28;20398;-56
2021/06/11 21:30:37;;;;;;;3.97;2.45;;;20.60;99.90;;;;;;5090553;28;20028;-56
2021/06/11 21:33:02;;;;;;;3.35;2.33;;;20.70;99.90;;;;;;5090570;28;20099;-57
2021/06/11 21:35:28;;;;;;;5.53;2.50;;;20.70;99.90;;;;;;5091992;28;20115;-56
2021/06/11 21:37:53;;;;;;;2.20;1.95;;;20.70;99.90;;;;;;5090995;28;20119;-60
2021/06/11 21:40:19;;;;;;;7.97;2.00;;;20.80;99.90;;;;;;5095785;28;20123;-56
2021/06/11 21:42:49;;;;;;;8.65;3.85;;;20.80;99.90;;;;;;5093081;28;20020;-56
2021/06/11 21:45:15;;;;;;;5.40;3.13;;;20.90;99.90;;;;;;5092327;28;20020;-57
2021/06/11 21:47:41;;;;;;;11.95;4.35;;;21.00;99.90;;;;;;5098372;28;20028;-62
2021/06/11 21:50:09;;;;;;;7.40;4.20;;;21.10;99.90;;;;;;5092393;28;20051;-57
2021/06/11 21:52:35;;;;;;;9.73;4.97;;;21.20;99.90;;;;;;5091443;28;20030;-59
2021/06/11 21:55:00;;;;;;;9.57;5.63;;;21.30;99.90;;;;;;5096372;28;20111;-57
2021/06/11 21:57:26;;;;;;;8.30;4.18;;;21.30;99.90;;;;;;5096692;28;20264;-58
2021/06/11 21:59:52;;;;;;;6.65;4.15;;;21.30;99.90;;;;;;5096193;28;20390;-54
2021/06/11 22:02:19;;;;;;;14.88;4.78;;;21.10;99.90;;;;;;5091723;28;20082;-60
2021/06/11 22:04:45;;;;;;;12.65;4.32;;;21.10;99.90;;;;;;5093051;28;20508;-58
2021/06/11 22:07:11;;;;;;;11.10;6.18;;;21.00;99.90;;;;;;5091837;28;20048;-56
2021/06/11 22:09:37;;;;;;;13.18;7.38;;;21.10;99.90;;;;;;5091456;28;20071;-55
2021/06/11 22:12:02;;;;;;;14.07;7.68;;;21.20;99.90;;;;;;5092196;28;20036;-57
2021/06/11 22:14:28;;;;;;;15.05;8.25;;;21.30;99.90;;;;;;5091501;28;20028;-56
2021/06/11 22:16:54;;;;;;;13.15;7.93;;;21.30;99.90;;;;;;5092131;28;20027;-59
2021/06/11 22:19:19;;;;;;;12.40;6.75;;;21.40;99.90;;;;;;5093065;28;20416;-59
2021/06/11 22:21:45;;;;;;;16.83;7.75;;;21.40;99.90;;;;;;5094175;28;20024;-57
2021/06/11 22:24:11;;;;;;;20.27;9.02;;;21.50;99.90;;;;;;5096110;28;20374;-56
2021/06/11 22:26:40;;;;;;;15.85;8.40;;;21.50;99.90;;;;;;5094543;28;20061;-60
2021/06/11 22:29:05;;;;;;;17.85;8.80;;;21.50;99.90;;;;;;5095315;28;20024;-53
2021/06/11 22:31:31;;;;;;;16.00;8.32;;;21.50;99.90;;;;;;5087162;28;20070;-61
2021/06/11 22:33:56;;;;;;;19.45;8.73;;;21.40;99.90;;;;;;5092776;28;20027;-60
2021/06/11 22:36:22;;;;;;;16.63;8.93;;;21.50;99.90;;;;;;5098097;28;20510;-60
2021/06/11 22:38:48;;;;;;;14.75;8.57;;;21.50;99.90;;;;;;5094125;28;20031;-56
2021/06/11 22:41:15;;;;;;;13.75;8.90;;;21.40;99.90;;;;;;5092159;28;20441;-56
2021/06/11 22:43:41;;;;;;;12.40;8.02;;;21.40;99.90;;;;;;5091517;28;20110;-55
2021/06/11 22:46:07;;;;;;;13.10;8.32;;;21.40;99.90;;;;;;5091967;28;20028;-56
2021/06/11 22:48:33;;;;;;;15.38;8.77;;;21.40;99.90;;;;;;5099650;28;20407;-55
2021/06/11 22:50:59;;;;;;;12.80;8.10;;;21.30;99.90;;;;;;5091090;28;20032;-57
2021/06/11 22:53:34;;;;;;;13.80;7.28;;;21.20;99.90;;;;;;5090597;28;20036;-55
2021/06/11 22:56:03;;;;;;;13.10;8.30;;;21.10;99.90;;;;;;5088634;28;20032;-53
2021/06/11 22:58:28;;;;;;;19.77;8.88;;;21.00;99.90;;;;;;5082389;28;20024;-56
2021/06/11 23:00:54;;;;;;;14.45;8.15;;;20.90;99.90;;;;;;5089047;28;20051;-57
2021/06/11 23:03:19;;;;;;;14.77;8.73;;;20.90;99.90;;;;;;5088286;28;20092;-53
2021/06/11 23:05:46;;;;;;;11.02;7.22;;;20.90;99.90;;;;;;5089282;28;20024;-54
2021/06/11 23:08:11;;;;;;;16.48;8.05;;;20.90;99.90;;;;;;5089911;28;20032;-52
2021/06/11 23:10:37;;;;;;;18.70;8.80;;;20.80;99.90;;;;;;5087567;28;20051;-53
2021/06/11 23:13:02;;;;;;;16.17;8.20;;;20.80;99.90;;;;;;5085992;28;20024;-54
2021/06/11 23:15:28;;;;;;;15.15;8.63;;;20.70;99.90;;;;;;5088965;28;20056;-53
2021/06/11 23:17:53;;;;;;;19.15;8.98;;;20.60;99.90;;;;;;5088350;28;20024;-53
2021/06/11 23:20:19;;;;;;;12.00;7.53;;;20.40;99.90;;;;;;5092284;28;20490;-57
2021/06/11 23:22:45;;;;;;;14.77;8.10;;;20.40;99.90;;;;;;5089668;28;20034;-55
2021/06/11 23:25:13;;;;;;;17.27;8.32;;;20.40;99.90;;;;;;5090669;28;20031;-55
2021/06/11 23:27:39;;;;;;;16.95;7.38;;;20.40;99.90;;;;;;5090684;28;20080;-48
2021/06/11 23:30:07;;;;;;;11.57;7.07;;;20.50;99.90;;;;;;5089314;28;20483;-52
2021/06/11 23:32:33;;;;;;;14.23;7.40;;;20.50;99.90;;;;;;5089452;28;20081;-53
2021/06/11 23:34:58;;;;;;;11.48;7.00;;;20.50;99.90;;;;;;5090927;28;20024;-53
2021/06/11 23:37:24;;;;;;;14.85;8.10;;;20.50;99.90;;;;;;5091604;28;20120;-53
2021/06/11 23:39:50;;;;;;;12.75;7.43;;;20.50;99.90;;;;;;5090838;28;20111;-58
2021/06/11 23:42:16;;;;;;;11.65;7.03;;;20.50;99.90;;;;;;5089173;28;20085;-55
2021/06/11 23:44:41;;;;;;;16.92;8.88;;;20.50;99.90;;;;;;5094036;28;20028;-55
2021/06/11 23:47:07;;;;;;;13.80;7.70;;;20.50;99.90;;;;;;5089042;28;20093;-54
2021/06/11 23:49:33;;;;;;;16.05;8.50;;;20.50;99.90;;;;;;5091687;28;20426;-57
2021/06/11 23:51:58;;;;;;;14.00;8.50;;;20.50;99.90;;;;;;5087983;28;20095;-50
2021/06/11 23:54:24;;;;;;;13.55;7.82;;;20.50;99.90;;;;;;5094870;28;20035;-51
2021/06/11 23:56:50;;;;;;;15.35;7.95;;;20.40;99.90;;;;;;5088916;28;20032;-52
2021/06/11 23:59:15;;;;;;;15.27;8.05;;;20.20;99.90;;;;;;5091284;28;20073;-54
